sensor_id;sensor_type;location;lat;lon;timestamp;P1;durP1;ratioP1;P2;durP2;ratioP2
41293;SDS011;27037;52.010;4.446;2023-08-17T00:01:59;8.32;;;3.10;;
41293;SDS011;27037;52.010;4.446;2023-08-17T00:04:25;7.95;;;3.40;;
41293;SDS011;27037;52.010;4.446;2023-08-17T00:06:51;7.45;;;3.53;;
41293;SDS011;27037;52.010;4.446;2023-08-17T00:09:16;8.10;;;3.30;;
41293;SDS011;27037;52.010;4.446;2023-08-17T00:11:43;8.80;;;3.42;;
41293;SDS011;27037;52.010;4.446;2023-08-17T00:14:08;9.40;;;2.97;;
41293;SDS011;27037;52.010;4.446;2023-08-17T00:16:35;11.40;;;2.97;;
41293;SDS011;27037;52.010;4.446;2023-08-17T00:19:00;7.95;;;3.05;;
41293;SDS011;27037;52.010;4.446;2023-08-17T00:21:27;7.70;;;3.17;;
41293;SDS011;27037;52.010;4.446;2023-08-17T00:23:53;7.25;;;3.22;;
41293;SDS011;27037;52.010;4.446;2023-08-17T00:26:18;8.40;;;3.17;;
41293;SDS011;27037;52.010;4.446;2023-08-17T00:28:45;6.38;;;2.97;;
41293;SDS011;27037;52.010;4.446;2023-08-17T00:31:11;6.32;;;3.15;;
41293;SDS011;27037;52.010;4.446;2023-08-17T00:33:36;7.03;;;2.70;;
41293;SDS011;27037;52.010;4.446;2023-08-17T00:36:02;7.38;;;2.50;;
41293;SDS011;27037;52.010;4.446;2023-08-17T00:38:28;7.25;;;2.90;;
41293;SDS011;27037;52.010;4.446;2023-08-17T00:40:54;7.47;;;2.72;;
41293;SDS011;27037;52.010;4.446;2023-08-17T00:43:20;5.22;;;2.70;;
41293;SDS011;27037;52.010;4.446;2023-08-17T00:45:46;8.18;;;2.55;;
41293;SDS011;27037;52.010;4.446;2023-08-17T00:48:12;8.77;;;2.65;;
41293;SDS011;27037;52.010;4.446;2023-08-17T00:50:38;6.53;;;2.80;;
41293;SDS011;27037;52.010;4.446;2023-08-17T00:53:04;9.15;;;2.90;;
41293;SDS011;27037;52.010;4.446;2023-08-17T00:55:31;7.07;;;2.55;;
41293;SDS011;27037;52.010;4.446;2023-08-17T00:57:58;7.85;;;2.60;;
41293;SDS011;27037;52.010;4.446;2023-08-17T01:00:24;8.73;;;2.70;;
41293;SDS011;27037;52.010;4.446;2023-08-17T01:02:54;6.80;;;2.83;;
41293;SDS011;27037;52.010;4.446;2023-08-17T01:05:20;9.43;;;2.60;;
41293;SDS011;27037;52.010;4.446;2023-08-17T01:07:47;7.07;;;2.50;;
41293;SDS011;27037;52.010;4.446;2023-08-17T01:10:13;10.75;;;2.50;;
41293;SDS011;27037;52.010;4.446;2023-08-17T01:12:53;10.15;;;2.70;;
41293;SDS011;27037;52.010;4.446;2023-08-17T01:15:36;7.78;;;2.50;;
41293;SDS011;27037;52.010;4.446;2023-08-17T01:20:44;5.43;;;2.47;;
41293;SDS011;27037;52.010;4.446;2023-08-17T01:23:11;6.03;;;2.30;;
41293;SDS011;27037;52.010;4.446;2023-08-17T01:25:37;7.20;;;2.67;;
41293;SDS011;27037;52.010;4.446;2023-08-17T01:28:03;10.77;;;2.95;;
41293;SDS011;27037;52.010;4.446;2023-08-17T01:30:30;7.50;;;2.50;;
41293;SDS011;27037;52.010;4.446;2023-08-17T01:33:06;7.60;;;2.50;;
41293;SDS011;27037;52.010;4.446;2023-08-17T01:35:43;5.65;;;2.67;;
41293;SDS011;27037;52.010;4.446;2023-08-17T01:38:12;6.50;;;2.58;;
41293;SDS011;27037;52.010;4.446;2023-08-17T01:40:42;5.13;;;2.03;;
41293;SDS011;27037;52.010;4.446;2023-08-17T01:43:13;6.57;;;2.70;;
41293;SDS011;27037;52.010;4.446;2023-08-17T01:45:39;7.25;;;2.67;;
41293;SDS011;27037;52.010;4.446;2023-08-17T01:48:05;8.20;;;2.80;;
41293;SDS011;27037;52.010;4.446;2023-08-17T01:50:31;7.57;;;2.63;;
41293;SDS011;27037;52.010;4.446;2023-08-17T01:52:57;6.32;;;2.60;;
41293;SDS011;27037;52.010;4.446;2023-08-17T01:55:22;5.78;;;2.60;;
41293;SDS011;27037;52.010;4.446;2023-08-17T01:57:48;4.80;;;2.33;;
41293;SDS011;27037;52.010;4.446;2023-08-17T02:00:14;8.35;;;2.70;;
41293;SDS011;27037;52.010;4.446;2023-08-17T02:02:40;8.15;;;2.65;;
41293;SDS011;27037;52.010;4.446;2023-08-17T02:05:06;6.95;;;2.70;;
41293;SDS011;27037;52.010;4.446;2023-08-17T02:07:33;6.38;;;2.60;;
41293;SDS011;27037;52.010;4.446;2023-08-17T02:09:59;5.60;;;2.80;;
41293;SDS011;27037;52.010;4.446;2023-08-17T02:12:24;7.32;;;2.78;;
41293;SDS011;27037;52.010;4.446;2023-08-17T02:14:50;9.02;;;2.80;;
41293;SDS011;27037;52.010;4.446;2023-08-17T02:17:16;8.13;;;2.75;;
41293;SDS011;27037;52.010;4.446;2023-08-17T02:19:45;7.50;;;2.50;;
41293;SDS011;27037;52.010;4.446;2023-08-17T02:22:12;6.13;;;2.88;;
41293;SDS011;27037;52.010;4.446;2023-08-17T02:24:38;12.63;;;3.40;;
41293;SDS011;27037;52.010;4.446;2023-08-17T02:27:04;6.45;;;2.97;;
41293;SDS011;27037;52.010;4.446;2023-08-17T02:29:29;8.68;;;2.78;;
41293;SDS011;27037;52.010;4.446;2023-08-17T02:31:55;7.03;;;2.83;;
41293;SDS011;27037;52.010;4.446;2023-08-17T02:34:21;8.35;;;2.90;;
41293;SDS011;27037;52.010;4.446;2023-08-17T02:36:46;5.88;;;2.60;;
41293;SDS011;27037;52.010;4.446;2023-08-17T02:39:12;7.07;;;3.17;;
41293;SDS011;27037;52.010;4.446;2023-08-17T02:41:38;6.13;;;2.75;;
41293;SDS011;27037;52.010;4.446;2023-08-17T02:44:04;6.63;;;2.60;;
41293;SDS011;27037;52.010;4.446;2023-08-17T02:46:30;7.32;;;3.00;;
41293;SDS011;27037;52.010;4.446;2023-08-17T02:48:55;6.75;;;2.67;;
41293;SDS011;27037;52.010;4.446;2023-08-17T02:51:21;5.03;;;2.58;;
41293;SDS011;27037;52.010;4.446;2023-08-17T02:53:46;6.82;;;2.92;;
41293;SDS011;27037;52.010;4.446;2023-08-17T02:56:12;7.03;;;2.90;;
41293;SDS011;27037;52.010;4.446;2023-08-17T02:58:38;9.00;;;3.00;;
41293;SDS011;27037;52.010;4.446;2023-08-17T03:01:07;6.00;;;3.05;;
41293;SDS011;27037;52.010;4.446;2023-08-17T03:03:33;9.80;;;2.88;;
41293;SDS011;27037;52.010;4.446;2023-08-17T03:06:00;5.75;;;2.85;;
41293;SDS011;27037;52.010;4.446;2023-08-17T03:08:26;8.50;;;3.05;;
41293;SDS011;27037;52.010;4.446;2023-08-17T03:10:52;6.70;;;2.88;;
41293;SDS011;27037;52.010;4.446;2023-08-17T03:13:17;6.25;;;3.30;;
41293;SDS011;27037;52.010;4.446;2023-08-17T03:15:43;7.95;;;3.22;;
41293;SDS011;27037;52.010;4.446;2023-08-17T03:18:09;9.23;;;3.20;;
41293;SDS011;27037;52.010;4.446;2023-08-17T03:20:34;10.50;;;3.22;;
41293;SDS011;27037;52.010;4.446;2023-08-17T03:23:00;8.27;;;3.42;;
41293;SDS011;27037;52.010;4.446;2023-08-17T03:25:26;10.25;;;3.50;;
41293;SDS011;27037;52.010;4.446;2023-08-17T03:27:51;5.88;;;3.15;;
41293;SDS011;27037;52.010;4.446;2023-08-17T03:30:17;6.97;;;3.13;;
41293;SDS011;27037;52.010;4.446;2023-08-17T03:32:43;8.90;;;2.90;;
41293;SDS011;27037;52.010;4.446;2023-08-17T03:35:08;9.90;;;3.38;;
41293;SDS011;27037;52.010;4.446;2023-08-17T03:37:34;6.47;;;3.08;;
41293;SDS011;27037;52.010;4.446;2023-08-17T03:39:59;7.75;;;2.90;;
41293;SDS011;27037;52.010;4.446;2023-08-17T03:42:25;8.55;;;3.40;;
41293;SDS011;27037;52.010;4.446;2023-08-17T03:44:52;8.13;;;3.10;;
41293;SDS011;27037;52.010;4.446;2023-08-17T03:47:18;6.00;;;3.20;;
41293;SDS011;27037;52.010;4.446;2023-08-17T03:49:44;8.35;;;3.30;;
41293;SDS011;27037;52.010;4.446;2023-08-17T03:52:10;5.47;;;3.10;;
41293;SDS011;27037;52.010;4.446;2023-08-17T03:54:36;6.15;;;3.60;;
41293;SDS011;27037;52.010;4.446;2023-08-17T03:57:01;9.45;;;3.33;;
41293;SDS011;27037;52.010;4.446;2023-08-17T03:59:27;10.82;;;3.65;;
41293;SDS011;27037;52.010;4.446;2023-08-17T04:01:53;10.05;;;3.47;;
41293;SDS011;27037;52.010;4.446;2023-08-17T04:04:19;8.13;;;3.20;;
41293;SDS011;27037;52.010;4.446;2023-08-17T04:06:44;6.00;;;3.28;;
41293;SDS011;27037;52.010;4.446;2023-08-17T04:09:10;8.25;;;3.47;;
41293;SDS011;27037;52.010;4.446;2023-08-17T04:11:36;6.70;;;3.22;;
41293;SDS011;27037;52.010;4.446;2023-08-17T04:14:02;6.18;;;3.20;;
41293;SDS011;27037;52.010;4.446;2023-08-17T04:16:28;6.65;;;3.20;;
41293;SDS011;27037;52.010;4.446;2023-08-17T04:18:54;8.63;;;3.40;;
41293;SDS011;27037;52.010;4.446;2023-08-17T04:21:20;8.00;;;3.15;;
41293;SDS011;27037;52.010;4.446;2023-08-17T04:23:46;10.68;;;4.00;;
41293;SDS011;27037;52.010;4.446;2023-08-17T04:26:12;5.82;;;2.92;;
41293;SDS011;27037;52.010;4.446;2023-08-17T04:28:37;8.35;;;3.20;;
41293;SDS011;27037;52.010;4.446;2023-08-17T04:31:03;7.28;;;2.58;;
41293;SDS011;27037;52.010;4.446;2023-08-17T04:33:29;7.60;;;3.05;;
41293;SDS011;27037;52.010;4.446;2023-08-17T04:35:55;6.07;;;2.97;;
41293;SDS011;27037;52.010;4.446;2023-08-17T04:38:20;8.15;;;2.58;;
41293;SDS011;27037;52.010;4.446;2023-08-17T04:40:46;9.95;;;3.35;;
41293;SDS011;27037;52.010;4.446;2023-08-17T04:43:12;7.07;;;3.28;;
41293;SDS011;27037;52.010;4.446;2023-08-17T04:45:38;9.18;;;2.92;;
41293;SDS011;27037;52.010;4.446;2023-08-17T04:48:04;11.73;;;2.60;;
41293;SDS011;27037;52.010;4.446;2023-08-17T04:50:31;6.63;;;2.90;;
41293;SDS011;27037;52.010;4.446;2023-08-17T04:52:57;7.50;;;2.75;;
41293;SDS011;27037;52.010;4.446;2023-08-17T04:55:23;6.85;;;2.83;;
41293;SDS011;27037;52.010;4.446;2023-08-17T04:57:48;8.75;;;2.95;;
41293;SDS011;27037;52.010;4.446;2023-08-17T05:00:15;6.15;;;2.75;;
41293;SDS011;27037;52.010;4.446;2023-08-17T05:02:41;5.43;;;2.70;;
41293;SDS011;27037;52.010;4.446;2023-08-17T05:05:07;9.88;;;2.80;;
41293;SDS011;27037;52.010;4.446;2023-08-17T05:07:34;11.70;;;2.90;;
41293;SDS011;27037;52.010;4.446;2023-08-17T05:10:00;6.40;;;2.85;;
41293;SDS011;27037;52.010;4.446;2023-08-17T05:12:26;6.65;;;2.67;;
41293;SDS011;27037;52.010;4.446;2023-08-17T05:14:52;8.60;;;2.40;;
41293;SDS011;27037;52.010;4.446;2023-08-17T05:17:18;6.65;;;2.45;;
41293;SDS011;27037;52.010;4.446;2023-08-17T05:19:44;8.85;;;2.80;;
41293;SDS011;27037;52.010;4.446;2023-08-17T05:22:11;7.00;;;2.67;;
41293;SDS011;27037;52.010;4.446;2023-08-17T05:24:37;8.40;;;3.25;;
41293;SDS011;27037;52.010;4.446;2023-08-17T05:27:03;8.27;;;2.83;;
41293;SDS011;27037;52.010;4.446;2023-08-17T05:29:30;6.28;;;2.78;;
41293;SDS011;27037;52.010;4.446;2023-08-17T05:31:58;10.88;;;3.03;;
41293;SDS011;27037;52.010;4.446;2023-08-17T05:34:24;6.82;;;2.47;;
41293;SDS011;27037;52.010;4.446;2023-08-17T05:36:50;7.57;;;2.58;;
41293;SDS011;27037;52.010;4.446;2023-08-17T05:39:15;6.90;;;2.50;;
41293;SDS011;27037;52.010;4.446;2023-08-17T05:41:41;7.07;;;2.30;;
41293;SDS011;27037;52.010;4.446;2023-08-17T05:44:06;7.03;;;2.20;;
41293;SDS011;27037;52.010;4.446;2023-08-17T05:46:33;7.93;;;2.38;;
41293;SDS011;27037;52.010;4.446;2023-08-17T05:48:59;6.82;;;2.45;;
41293;SDS011;27037;52.010;4.446;2023-08-17T05:51:25;7.13;;;2.40;;
41293;SDS011;27037;52.010;4.446;2023-08-17T05:53:51;7.45;;;2.47;;
41293;SDS011;27037;52.010;4.446;2023-08-17T05:56:16;8.32;;;2.70;;
41293;SDS011;27037;52.010;4.446;2023-08-17T05:58:42;6.90;;;2.00;;
41293;SDS011;27037;52.010;4.446;2023-08-17T06:01:08;6.70;;;2.30;;
41293;SDS011;27037;52.010;4.446;2023-08-17T06:03:35;5.32;;;2.20;;
41293;SDS011;27037;52.010;4.446;2023-08-17T06:06:02;5.55;;;2.05;;
41293;SDS011;27037;52.010;4.446;2023-08-17T06:08:28;4.15;;;2.13;;
41293;SDS011;27037;52.010;4.446;2023-08-17T06:10:55;6.10;;;2.67;;
41293;SDS011;27037;52.010;4.446;2023-08-17T06:13:21;9.57;;;2.55;;
41293;SDS011;27037;52.010;4.446;2023-08-17T06:15:47;4.75;;;2.08;;
41293;SDS011;27037;52.010;4.446;2023-08-17T06:18:12;6.10;;;2.20;;
41293;SDS011;27037;52.010;4.446;2023-08-17T06:20:38;6.90;;;2.20;;
41293;SDS011;27037;52.010;4.446;2023-08-17T06:23:04;4.93;;;2.55;;
41293;SDS011;27037;52.010;4.446;2023-08-17T06:25:30;8.60;;;2.47;;
41293;SDS011;27037;52.010;4.446;2023-08-17T06:27:55;8.50;;;2.22;;
41293;SDS011;27037;52.010;4.446;2023-08-17T06:30:21;7.00;;;1.92;;
41293;SDS011;27037;52.010;4.446;2023-08-17T06:32:47;7.60;;;2.22;;
41293;SDS011;27037;52.010;4.446;2023-08-17T06:35:13;5.45;;;2.40;;
41293;SDS011;27037;52.010;4.446;2023-08-17T06:37:38;8.88;;;2.40;;
41293;SDS011;27037;52.010;4.446;2023-08-17T06:40:04;5.72;;;2.50;;
41293;SDS011;27037;52.010;4.446;2023-08-17T06:42:31;5.95;;;2.50;;
41293;SDS011;27037;52.010;4.446;2023-08-17T06:44:57;6.82;;;2.30;;
41293;SDS011;27037;52.010;4.446;2023-08-17T06:47:22;6.13;;;2.45;;
41293;SDS011;27037;52.010;4.446;2023-08-17T06:49:48;7.20;;;2.50;;
41293;SDS011;27037;52.010;4.446;2023-08-17T06:52:14;6.10;;;2.25;;
41293;SDS011;27037;52.010;4.446;2023-08-17T06:54:40;8.35;;;2.42;;
41293;SDS011;27037;52.010;4.446;2023-08-17T06:57:05;5.07;;;2.10;;
41293;SDS011;27037;52.010;4.446;2023-08-17T06:59:31;8.15;;;2.50;;
41293;SDS011;27037;52.010;4.446;2023-08-17T07:01:58;7.75;;;2.28;;
41293;SDS011;27037;52.010;4.446;2023-08-17T07:04:24;6.53;;;2.17;;
41293;SDS011;27037;52.010;4.446;2023-08-17T07:06:50;7.05;;;2.53;;
41293;SDS011;27037;52.010;4.446;2023-08-17T07:09:15;6.72;;;2.33;;
41293;SDS011;27037;52.010;4.446;2023-08-17T07:11:41;7.15;;;2.35;;
41293;SDS011;27037;52.010;4.446;2023-08-17T07:14:07;4.60;;;2.38;;
41293;SDS011;27037;52.010;4.446;2023-08-17T07:16:32;8.15;;;2.88;;
41293;SDS011;27037;52.010;4.446;2023-08-17T07:18:58;10.60;;;2.83;;
41293;SDS011;27037;52.010;4.446;2023-08-17T07:21:24;9.88;;;3.05;;
41293;SDS011;27037;52.010;4.446;2023-08-17T07:23:50;8.68;;;2.60;;
41293;SDS011;27037;52.010;4.446;2023-08-17T07:26:16;9.70;;;2.50;;
41293;SDS011;27037;52.010;4.446;2023-08-17T07:28:44;9.50;;;2.60;;
41293;SDS011;27037;52.010;4.446;2023-08-17T07:31:09;7.53;;;2.90;;
41293;SDS011;27037;52.010;4.446;2023-08-17T07:33:36;9.38;;;3.00;;
41293;SDS011;27037;52.010;4.446;2023-08-17T07:36:02;7.95;;;2.88;;
41293;SDS011;27037;52.010;4.446;2023-08-17T07:38:27;6.75;;;2.63;;
41293;SDS011;27037;52.010;4.446;2023-08-17T07:40:54;5.53;;;2.40;;
41293;SDS011;27037;52.010;4.446;2023-08-17T07:43:20;7.72;;;2.50;;
41293;SDS011;27037;52.010;4.446;2023-08-17T07:45:46;9.68;;;2.38;;
41293;SDS011;27037;52.010;4.446;2023-08-17T07:48:26;6.28;;;2.00;;
41293;SDS011;27037;52.010;4.446;2023-08-17T07:50:52;6.82;;;1.80;;
41293;SDS011;27037;52.010;4.446;2023-08-17T07:53:18;8.60;;;2.40;;
41293;SDS011;27037;52.010;4.446;2023-08-17T07:55:44;5.65;;;1.65;;
41293;SDS011;27037;52.010;4.446;2023-08-17T07:58:10;12.93;;;1.90;;
41293;SDS011;27037;52.010;4.446;2023-08-17T08:00:36;5.72;;;1.90;;
41293;SDS011;27037;52.010;4.446;2023-08-17T08:03:02;7.65;;;2.03;;
41293;SDS011;27037;52.010;4.446;2023-08-17T08:05:28;6.75;;;2.00;;
41293;SDS011;27037;52.010;4.446;2023-08-17T08:07:54;7.03;;;1.92;;
41293;SDS011;27037;52.010;4.446;2023-08-17T08:10:20;5.40;;;1.80;;
41293;SDS011;27037;52.010;4.446;2023-08-17T08:12:45;6.18;;;2.10;;
41293;SDS011;27037;52.010;4.446;2023-08-17T08:15:11;9.05;;;2.17;;
41293;SDS011;27037;52.010;4.446;2023-08-17T08:17:37;6.78;;;1.65;;
41293;SDS011;27037;52.010;4.446;2023-08-17T08:20:03;7.18;;;1.88;;
41293;SDS011;27037;52.010;4.446;2023-08-17T08:22:29;5.53;;;1.80;;
41293;SDS011;27037;52.010;4.446;2023-08-17T08:24:55;8.60;;;1.80;;
41293;SDS011;27037;52.010;4.446;2023-08-17T08:27:21;7.22;;;1.90;;
41293;SDS011;27037;52.010;4.446;2023-08-17T08:29:47;8.40;;;1.95;;
41293;SDS011;27037;52.010;4.446;2023-08-17T08:32:12;3.70;;;1.83;;
41293;SDS011;27037;52.010;4.446;2023-08-17T08:34:38;7.75;;;1.67;;
41293;SDS011;27037;52.010;4.446;2023-08-17T08:37:04;9.45;;;2.53;;
41293;SDS011;27037;52.010;4.446;2023-08-17T08:39:29;10.75;;;2.58;;
41293;SDS011;27037;52.010;4.446;2023-08-17T08:41:55;9.75;;;1.92;;
41293;SDS011;27037;52.010;4.446;2023-08-17T08:44:21;6.13;;;2.15;;
41293;SDS011;27037;52.010;4.446;2023-08-17T08:46:47;5.53;;;1.92;;
41293;SDS011;27037;52.010;4.446;2023-08-17T08:49:15;8.85;;;2.08;;
41293;SDS011;27037;52.010;4.446;2023-08-17T08:51:46;4.65;;;1.75;;
41293;SDS011;27037;52.010;4.446;2023-08-17T08:54:17;9.05;;;2.17;;
41293;SDS011;27037;52.010;4.446;2023-08-17T08:56:47;5.57;;;1.95;;
41293;SDS011;27037;52.010;4.446;2023-08-17T08:59:28;5.18;;;1.90;;
41293;SDS011;27037;52.010;4.446;2023-08-17T09:01:55;6.80;;;2.53;;
41293;SDS011;27037;52.010;4.446;2023-08-17T09:04:22;8.95;;;1.85;;
41293;SDS011;27037;52.010;4.446;2023-08-17T09:06:48;8.52;;;2.10;;
41293;SDS011;27037;52.010;4.446;2023-08-17T09:09:15;8.80;;;1.80;;
41293;SDS011;27037;52.010;4.446;2023-08-17T09:11:43;7.63;;;1.80;;
41293;SDS011;27037;52.010;4.446;2023-08-17T09:14:08;4.22;;;1.80;;
41293;SDS011;27037;52.010;4.446;2023-08-17T09:16:34;6.25;;;1.98;;
41293;SDS011;27037;52.010;4.446;2023-08-17T09:19:00;4.80;;;1.80;;
41293;SDS011;27037;52.010;4.446;2023-08-17T09:21:26;9.27;;;1.60;;
41293;SDS011;27037;52.010;4.446;2023-08-17T09:23:57;6.07;;;1.45;;
41293;SDS011;27037;52.010;4.446;2023-08-17T09:26:23;5.57;;;1.73;;
41293;SDS011;27037;52.010;4.446;2023-08-17T09:28:49;6.13;;;1.70;;
41293;SDS011;27037;52.010;4.446;2023-08-17T09:31:15;3.20;;;1.70;;
41293;SDS011;27037;52.010;4.446;2023-08-17T09:33:48;6.43;;;1.70;;
41293;SDS011;27037;52.010;4.446;2023-08-17T09:36:14;8.43;;;1.70;;
41293;SDS011;27037;52.010;4.446;2023-08-17T09:38:40;5.72;;;1.63;;
41293;SDS011;27037;52.010;4.446;2023-08-17T09:41:06;4.43;;;1.83;;
41293;SDS011;27037;52.010;4.446;2023-08-17T09:43:32;6.72;;;1.85;;
41293;SDS011;27037;52.010;4.446;2023-08-17T09:45:59;4.93;;;1.73;;
41293;SDS011;27037;52.010;4.446;2023-08-17T09:48:27;7.03;;;1.90;;
41293;SDS011;27037;52.010;4.446;2023-08-17T09:50:53;6.68;;;1.70;;
41293;SDS011;27037;52.010;4.446;2023-08-17T09:53:21;7.75;;;1.88;;
41293;SDS011;27037;52.010;4.446;2023-08-17T09:55:47;8.38;;;2.03;;
41293;SDS011;27037;52.010;4.446;2023-08-17T09:58:13;8.02;;;1.65;;
41293;SDS011;27037;52.010;4.446;2023-08-17T10:00:43;6.53;;;1.70;;
41293;SDS011;27037;52.010;4.446;2023-08-17T10:03:11;5.78;;;1.80;;
41293;SDS011;27037;52.010;4.446;2023-08-17T10:05:40;7.03;;;1.85;;
41293;SDS011;27037;52.010;4.446;2023-08-17T10:08:07;5.82;;;1.90;;
41293;SDS011;27037;52.010;4.446;2023-08-17T10:10:35;7.85;;;1.98;;
41293;SDS011;27037;52.010;4.446;2023-08-17T10:13:10;5.65;;;1.80;;
41293;SDS011;27037;52.010;4.446;2023-08-17T10:15:41;7.25;;;2.22;;
41293;SDS011;27037;52.010;4.446;2023-08-17T10:20:39;5.20;;;2.00;;
41293;SDS011;27037;52.010;4.446;2023-08-17T10:23:40;7.78;;;2.60;;
41293;SDS011;27037;52.010;4.446;2023-08-17T10:26:00;9.80;;;2.17;;
41293;SDS011;27037;52.010;4.446;2023-08-17T10:28:30;8.38;;;2.53;;
41293;SDS011;27037;52.010;4.446;2023-08-17T10:30:57;8.98;;;2.58;;
41293;SDS011;27037;52.010;4.446;2023-08-17T10:33:24;7.30;;;2.30;;
41293;SDS011;27037;52.010;4.446;2023-08-17T10:35:50;5.22;;;2.45;;
41293;SDS011;27037;52.010;4.446;2023-08-17T10:38:16;8.55;;;2.35;;
41293;SDS011;27037;52.010;4.446;2023-08-17T10:40:42;4.93;;;2.50;;
41293;SDS011;27037;52.010;4.446;2023-08-17T10:43:08;5.88;;;2.50;;
41293;SDS011;27037;52.010;4.446;2023-08-17T10:45:35;10.00;;;2.70;;
41293;SDS011;27037;52.010;4.446;2023-08-17T10:50:35;6.47;;;2.30;;
41293;SDS011;27037;52.010;4.446;2023-08-17T10:53:08;9.90;;;2.90;;
41293;SDS011;27037;52.010;4.446;2023-08-17T10:55:36;7.45;;;3.03;;
41293;SDS011;27037;52.010;4.446;2023-08-17T10:58:04;8.10;;;2.95;;
41293;SDS011;27037;52.010;4.446;2023-08-17T11:00:36;7.47;;;2.40;;
41293;SDS011;27037;52.010;4.446;2023-08-17T11:03:04;8.35;;;2.85;;
41293;SDS011;27037;52.010;4.446;2023-08-17T11:11:03;6.78;;;3.03;;
41293;SDS011;27037;52.010;4.446;2023-08-17T11:13:36;7.80;;;2.88;;
41293;SDS011;27037;52.010;4.446;2023-08-17T11:16:03;6.93;;;2.65;;
41293;SDS011;27037;52.010;4.446;2023-08-17T11:18:30;9.07;;;2.85;;
41293;SDS011;27037;52.010;4.446;2023-08-17T11:20:59;7.72;;;2.80;;
41293;SDS011;27037;52.010;4.446;2023-08-17T11:23:28;8.00;;;2.63;;
41293;SDS011;27037;52.010;4.446;2023-08-17T11:25:55;5.65;;;2.55;;
41293;SDS011;27037;52.010;4.446;2023-08-17T11:28:21;7.32;;;2.33;;
41293;SDS011;27037;52.010;4.446;2023-08-17T11:30:57;5.32;;;2.67;;
41293;SDS011;27037;52.010;4.446;2023-08-17T11:33:27;4.35;;;2.38;;
41293;SDS011;27037;52.010;4.446;2023-08-17T11:35:54;6.65;;;2.90;;
41293;SDS011;27037;52.010;4.446;2023-08-17T11:38:20;9.85;;;2.72;;
41293;SDS011;27037;52.010;4.446;2023-08-17T11:40:46;9.95;;;2.67;;
41293;SDS011;27037;52.010;4.446;2023-08-17T11:43:12;8.60;;;3.00;;
41293;SDS011;27037;52.010;4.446;2023-08-17T11:45:39;6.95;;;2.70;;
41293;SDS011;27037;52.010;4.446;2023-08-17T11:48:04;9.45;;;2.63;;
41293;SDS011;27037;52.010;4.446;2023-08-17T11:50:30;8.43;;;2.85;;
41293;SDS011;27037;52.010;4.446;2023-08-17T11:52:59;9.73;;;2.80;;
41293;SDS011;27037;52.010;4.446;2023-08-17T11:55:26;10.50;;;2.70;;
41293;SDS011;27037;52.010;4.446;2023-08-17T11:57:52;8.55;;;2.67;;
41293;SDS011;27037;52.010;4.446;2023-08-17T12:00:19;7.72;;;2.70;;
41293;SDS011;27037;52.010;4.446;2023-08-17T12:02:52;6.07;;;2.47;;
41293;SDS011;27037;52.010;4.446;2023-08-17T12:05:24;6.05;;;2.58;;
41293;SDS011;27037;52.010;4.446;2023-08-17T12:07:55;7.93;;;2.67;;
41293;SDS011;27037;52.010;4.446;2023-08-17T12:10:20;9.27;;;2.80;;
41293;SDS011;27037;52.010;4.446;2023-08-17T12:12:48;7.85;;;2.60;;
41293;SDS011;27037;52.010;4.446;2023-08-17T12:15:15;8.02;;;3.10;;
41293;SDS011;27037;52.010;4.446;2023-08-17T12:17:45;8.68;;;3.22;;
41293;SDS011;27037;52.010;4.446;2023-08-17T12:20:18;7.88;;;2.72;;
41293;SDS011;27037;52.010;4.446;2023-08-17T12:22:48;9.48;;;2.83;;
41293;SDS011;27037;52.010;4.446;2023-08-17T12:25:14;10.93;;;3.15;;
41293;SDS011;27037;52.010;4.446;2023-08-17T12:27:40;8.55;;;2.75;;
41293;SDS011;27037;52.010;4.446;2023-08-17T12:30:14;10.57;;;2.75;;
41293;SDS011;27037;52.010;4.446;2023-08-17T12:32:49;6.78;;;2.70;;
41293;SDS011;27037;52.010;4.446;2023-08-17T12:35:14;9.43;;;2.80;;
41293;SDS011;27037;52.010;4.446;2023-08-17T12:37:40;7.63;;;2.92;;
41293;SDS011;27037;52.010;4.446;2023-08-17T12:40:06;8.00;;;3.00;;
41293;SDS011;27037;52.010;4.446;2023-08-17T12:42:33;9.07;;;3.22;;
41293;SDS011;27037;52.010;4.446;2023-08-17T12:44:58;10.20;;;3.20;;
41293;SDS011;27037;52.010;4.446;2023-08-17T12:47:24;4.38;;;2.83;;
41293;SDS011;27037;52.010;4.446;2023-08-17T12:49:50;8.77;;;2.80;;
41293;SDS011;27037;52.010;4.446;2023-08-17T12:52:15;6.90;;;2.90;;
41293;SDS011;27037;52.010;4.446;2023-08-17T12:54:41;8.88;;;3.05;;
41293;SDS011;27037;52.010;4.446;2023-08-17T12:57:07;7.88;;;2.65;;
41293;SDS011;27037;52.010;4.446;2023-08-17T12:59:32;8.77;;;3.00;;
41293;SDS011;27037;52.010;4.446;2023-08-17T13:01:59;8.48;;;2.92;;
41293;SDS011;27037;52.010;4.446;2023-08-17T13:04:25;8.85;;;3.08;;
41293;SDS011;27037;52.010;4.446;2023-08-17T13:06:50;10.75;;;3.00;;
41293;SDS011;27037;52.010;4.446;2023-08-17T13:09:16;12.60;;;3.30;;
41293;SDS011;27037;52.010;4.446;2023-08-17T13:11:44;7.28;;;2.88;;
41293;SDS011;27037;52.010;4.446;2023-08-17T13:14:10;6.00;;;2.90;;
41293;SDS011;27037;52.010;4.446;2023-08-17T13:16:37;11.05;;;3.03;;
41293;SDS011;27037;52.010;4.446;2023-08-17T13:19:02;8.68;;;2.55;;
41293;SDS011;27037;52.010;4.446;2023-08-17T13:21:34;8.45;;;2.92;;
41293;SDS011;27037;52.010;4.446;2023-08-17T13:24:02;9.60;;;2.90;;
41293;SDS011;27037;52.010;4.446;2023-08-17T13:26:28;8.55;;;3.08;;
41293;SDS011;27037;52.010;4.446;2023-08-17T13:28:55;8.45;;;2.75;;
41293;SDS011;27037;52.010;4.446;2023-08-17T13:31:21;7.55;;;2.55;;
41293;SDS011;27037;52.010;4.446;2023-08-17T13:33:47;5.03;;;2.88;;
41293;SDS011;27037;52.010;4.446;2023-08-17T13:36:12;7.50;;;2.90;;
41293;SDS011;27037;52.010;4.446;2023-08-17T13:38:41;7.95;;;3.00;;
41293;SDS011;27037;52.010;4.446;2023-08-17T13:41:07;6.55;;;2.70;;
41293;SDS011;27037;52.010;4.446;2023-08-17T13:43:32;5.05;;;2.67;;
41293;SDS011;27037;52.010;4.446;2023-08-17T13:45:58;8.13;;;3.03;;
41293;SDS011;27037;52.010;4.446;2023-08-17T13:48:24;5.82;;;2.50;;
41293;SDS011;27037;52.010;4.446;2023-08-17T13:50:49;4.95;;;2.40;;
41293;SDS011;27037;52.010;4.446;2023-08-17T13:53:15;5.38;;;2.65;;
41293;SDS011;27037;52.010;4.446;2023-08-17T13:55:41;6.00;;;2.50;;
41293;SDS011;27037;52.010;4.446;2023-08-17T13:58:07;4.32;;;2.55;;
41293;SDS011;27037;52.010;4.446;2023-08-17T14:00:35;4.15;;;2.45;;
41293;SDS011;27037;52.010;4.446;2023-08-17T14:03:01;6.00;;;2.75;;
41293;SDS011;27037;52.010;4.446;2023-08-17T14:05:27;5.45;;;2.38;;
41293;SDS011;27037;52.010;4.446;2023-08-17T14:07:52;7.60;;;2.72;;
41293;SDS011;27037;52.010;4.446;2023-08-17T14:10:18;6.90;;;3.00;;
41293;SDS011;27037;52.010;4.446;2023-08-17T14:12:44;5.72;;;2.65;;
41293;SDS011;27037;52.010;4.446;2023-08-17T14:15:09;5.45;;;2.85;;
41293;SDS011;27037;52.010;4.446;2023-08-17T14:17:35;8.07;;;2.75;;
41293;SDS011;27037;52.010;4.446;2023-08-17T14:20:01;6.28;;;3.10;;
41293;SDS011;27037;52.010;4.446;2023-08-17T14:22:29;7.25;;;2.90;;
41293;SDS011;27037;52.010;4.446;2023-08-17T14:24:55;5.53;;;2.90;;
41293;SDS011;27037;52.010;4.446;2023-08-17T14:27:21;6.75;;;2.88;;
41293;SDS011;27037;52.010;4.446;2023-08-17T14:29:46;6.68;;;3.00;;
41293;SDS011;27037;52.010;4.446;2023-08-17T14:32:12;8.70;;;3.15;;
41293;SDS011;27037;52.010;4.446;2023-08-17T14:34:38;3.50;;;2.55;;
41293;SDS011;27037;52.010;4.446;2023-08-17T14:37:03;5.47;;;3.08;;
41293;SDS011;27037;52.010;4.446;2023-08-17T14:39:29;4.97;;;2.60;;
41293;SDS011;27037;52.010;4.446;2023-08-17T14:41:55;6.43;;;2.83;;
41293;SDS011;27037;52.010;4.446;2023-08-17T14:44:20;9.60;;;3.10;;
41293;SDS011;27037;52.010;4.446;2023-08-17T14:46:47;8.05;;;3.00;;
41293;SDS011;27037;52.010;4.446;2023-08-17T14:49:12;8.15;;;3.08;;
41293;SDS011;27037;52.010;4.446;2023-08-17T14:51:39;7.88;;;2.97;;
41293;SDS011;27037;52.010;4.446;2023-08-17T14:54:06;10.65;;;3.00;;
41293;SDS011;27037;52.010;4.446;2023-08-17T14:56:33;7.13;;;3.00;;
41293;SDS011;27037;52.010;4.446;2023-08-17T14:58:59;7.20;;;3.00;;